sensor_id;sensor_type;location;lat;lon;timestamp;temperature;humidity
3868;DHT22;1949;48.152;11.528;2022-08-19T00:00:43;24.20;52.60
3868;DHT22;1949;48.152;11.528;2022-08-19T00:03:18;24.20;52.50
3868;DHT22;1949;48.152;11.528;2022-08-19T00:05:49;24.20;52.60
3868;DHT22;1949;48.152;11.528;2022-08-19T00:08:28;24.20;52.70
3868;DHT22;1949;48.152;11.528;2022-08-19T00:10:54;24.20;52.70
3868;DHT22;1949;48.152;11.528;2022-08-19T00:13:19;24.20;52.80
3868;DHT22;1949;48.152;11.528;2022-08-19T00:15:52;24.20;52.60
3868;DHT22;1949;48.152;11.528;2022-08-19T00:18:18;24.20;52.70
3868;DHT22;1949;48.152;11.528;2022-08-19T00:20:44;24.20;52.70
3868;DHT22;1949;48.152;11.528;2022-08-19T00:23:29;24.20;53.00
3868;DHT22;1949;48.152;11.528;2022-08-19T00:25:56;24.20;52.90
3868;DHT22;1949;48.152;11.528;2022-08-19T00:28:24;24.30;53.50
3868;DHT22;1949;48.152;11.528;2022-08-19T00:31:00;24.30;52.90
3868;DHT22;1949;48.152;11.528;2022-08-19T00:33:33;24.40;52.90
3868;DHT22;1949;48.152;11.528;2022-08-19T00:36:14;24.40;52.90
3868;DHT22;1949;48.152;11.528;2022-08-19T00:38:56;24.50;52.80
3868;DHT22;1949;48.152;11.528;2022-08-19T00:41:31;24.60;52.70
3868;DHT22;1949;48.152;11.528;2022-08-19T00:44:18;24.60;52.50
3868;DHT22;1949;48.152;11.528;2022-08-19T00:46:53;24.70;52.60
3868;DHT22;1949;48.152;11.528;2022-08-19T00:49:35;24.70;52.30
3868;DHT22;1949;48.152;11.528;2022-08-19T00:52:40;24.70;52.30
3868;DHT22;1949;48.152;11.528;2022-08-19T00:55:14;24.60;52.10
3868;DHT22;1949;48.152;11.528;2022-08-19T00:57:51;24.50;52.40
3868;DHT22;1949;48.152;11.528;2022-08-19T01:00:29;24.50;52.50
3868;DHT22;1949;48.152;11.528;2022-08-19T01:02:57;24.50;52.50
3868;DHT22;1949;48.152;11.528;2022-08-19T01:05:29;24.50;52.60
3868;DHT22;1949;48.152;11.528;2022-08-19T01:08:05;24.50;52.60
3868;DHT22;1949;48.152;11.528;2022-08-19T01:10:43;24.50;52.60
3868;DHT22;1949;48.152;11.528;2022-08-19T01:13:11;24.50;52.60
3868;DHT22;1949;48.152;11.528;2022-08-19T01:15:46;24.50;52.60
3868;DHT22;1949;48.152;11.528;2022-08-19T01:18:14;24.50;52.80
3868;DHT22;1949;48.152;11.528;2022-08-19T01:20:58;24.50;52.70
3868;DHT22;1949;48.152;11.528;2022-08-19T01:23:25;24.60;52.70
3868;DHT22;1949;48.152;11.528;2022-08-19T01:26:15;24.70;52.70
3868;DHT22;1949;48.152;11.528;2022-08-19T01:28:42;24.70;52.50
3868;DHT22;1949;48.152;11.528;2022-08-19T01:31:25;24.70;52.50
3868;DHT22;1949;48.152;11.528;2022-08-19T01:34:03;24.70;52.40
3868;DHT22;1949;48.152;11.528;2022-08-19T01:36:38;24.70;52.20
3868;DHT22;1949;48.152;11.528;2022-08-19T01:39:10;24.60;52.30
3868;DHT22;1949;48.152;11.528;2022-08-19T01:41:39;24.60;52.30
3868;DHT22;1949;48.152;11.528;2022-08-19T01:44:08;24.60;52.20
3868;DHT22;1949;48.152;11.528;2022-08-19T01:46:34;24.50;52.20
3868;DHT22;1949;48.152;11.528;2022-08-19T01:49:01;24.50;52.30
3868;DHT22;1949;48.152;11.528;2022-08-19T01:51:27;24.40;52.40
3868;DHT22;1949;48.152;11.528;2022-08-19T01:53:57;24.30;52.40
3868;DHT22;1949;48.152;11.528;2022-08-19T01:56:23;24.20;52.60
3868;DHT22;1949;48.152;11.528;2022-08-19T01:58:56;24.20;52.80
3868;DHT22;1949;48.152;11.528;2022-08-19T02:01:25;24.20;52.90
3868;DHT22;1949;48.152;11.528;2022-08-19T02:03:52;24.20;53.00
3868;DHT22;1949;48.152;11.528;2022-08-19T02:06:20;24.20;53.00
3868;DHT22;1949;48.152;11.528;2022-08-19T02:08:46;24.20;53.00
3868;DHT22;1949;48.152;11.528;2022-08-19T02:11:34;24.20;53.00
3868;DHT22;1949;48.152;11.528;2022-08-19T02:14:07;24.20;52.90
3868;DHT22;1949;48.152;11.528;2022-08-19T02:16:35;24.20;53.00
3868;DHT22;1949;48.152;11.528;2022-08-19T02:19:02;24.20;53.00
3868;DHT22;1949;48.152;11.528;2022-08-19T02:21:28;24.20;53.00
3868;DHT22;1949;48.152;11.528;2022-08-19T02:23:55;24.10;52.80
3868;DHT22;1949;48.152;11.528;2022-08-19T02:26:21;24.10;53.10
3868;DHT22;1949;48.152;11.528;2022-08-19T02:28:48;24.00;53.10
3868;DHT22;1949;48.152;11.528;2022-08-19T02:31:19;24.00;53.00
3868;DHT22;1949;48.152;11.528;2022-08-19T02:33:47;23.90;53.20
3868;DHT22;1949;48.152;11.528;2022-08-19T02:36:15;23.90;53.40
3868;DHT22;1949;48.152;11.528;2022-08-19T02:38:42;23.90;53.40
3868;DHT22;1949;48.152;11.528;2022-08-19T02:41:17;24.00;53.50
3868;DHT22;1949;48.152;11.528;2022-08-19T02:43:45;24.00;53.60
3868;DHT22;1949;48.152;11.528;2022-08-19T02:46:32;24.10;53.50
3868;DHT22;1949;48.152;11.528;2022-08-19T02:49:00;24.10;53.40
3868;DHT22;1949;48.152;11.528;2022-08-19T02:51:34;24.20;53.20
3868;DHT22;1949;48.152;11.528;2022-08-19T02:54:04;24.30;53.30
3868;DHT22;1949;48.152;11.528;2022-08-19T02:56:30;24.30;53.20
3868;DHT22;1949;48.152;11.528;2022-08-19T02:58:57;24.30;53.20
3868;DHT22;1949;48.152;11.528;2022-08-19T03:01:27;24.40;53.20
3868;DHT22;1949;48.152;11.528;2022-08-19T03:03:55;24.40;53.10
3868;DHT22;1949;48.152;11.528;2022-08-19T03:06:22;24.50;53.10
3868;DHT22;1949;48.152;11.528;2022-08-19T03:08:52;24.50;53.00
3868;DHT22;1949;48.152;11.528;2022-08-19T03:11:28;24.50;52.90
3868;DHT22;1949;48.152;11.528;2022-08-19T03:13:58;24.50;52.80
3868;DHT22;1949;48.152;11.528;2022-08-19T03:16:31;24.50;52.80
3868;DHT22;1949;48.152;11.528;2022-08-19T03:18:58;24.40;52.70
3868;DHT22;1949;48.152;11.528;2022-08-19T03:21:28;24.50;52.80
3868;DHT22;1949;48.152;11.528;2022-08-19T03:24:00;24.50;52.70
3868;DHT22;1949;48.152;11.528;2022-08-19T03:26:27;24.50;52.60
3868;DHT22;1949;48.152;11.528;2022-08-19T03:28:53;24.50;52.50
3868;DHT22;1949;48.152;11.528;2022-08-19T03:31:21;24.50;52.60
3868;DHT22;1949;48.152;11.528;2022-08-19T03:33:48;24.40;52.60
3868;DHT22;1949;48.152;11.528;2022-08-19T03:36:26;24.40;52.70
3868;DHT22;1949;48.152;11.528;2022-08-19T03:38:57;24.40;52.90
3868;DHT22;1949;48.152;11.528;2022-08-19T03:41:29;24.40;52.90
3868;DHT22;1949;48.152;11.528;2022-08-19T03:44:01;24.40;52.90
3868;DHT22;1949;48.152;11.528;2022-08-19T03:46:33;24.50;52.90
3868;DHT22;1949;48.152;11.528;2022-08-19T03:49:03;24.50;52.80
3868;DHT22;1949;48.152;11.528;2022-08-19T03:51:34;24.50;52.90
3868;DHT22;1949;48.152;11.528;2022-08-19T03:54:03;24.50;52.90
3868;DHT22;1949;48.152;11.528;2022-08-19T03:56:31;24.50;52.80
3868;DHT22;1949;48.152;11.528;2022-08-19T03:58:59;24.60;53.40
3868;DHT22;1949;48.152;11.528;2022-08-19T04:01:26;24.60;52.60
3868;DHT22;1949;48.152;11.528;2022-08-19T04:03:58;24.60;52.60
3868;DHT22;1949;48.152;11.528;2022-08-19T04:06:30;24.60;52.50
3868;DHT22;1949;48.152;11.528;2022-08-19T04:09:00;24.60;52.60
3868;DHT22;1949;48.152;11.528;2022-08-19T04:11:35;24.60;52.60
3868;DHT22;1949;48.152;11.528;2022-08-19T04:14:01;24.60;52.60
3868;DHT22;1949;48.152;11.528;2022-08-19T04:16:28;24.60;52.60
3868;DHT22;1949;48.152;11.528;2022-08-19T04:19:00;24.60;52.70
3868;DHT22;1949;48.152;11.528;2022-08-19T04:21:28;24.60;52.70
3868;DHT22;1949;48.152;11.528;2022-08-19T04:23:56;24.60;52.70
3868;DHT22;1949;48.152;11.528;2022-08-19T04:26:28;24.60;52.60
3868;DHT22;1949;48.152;11.528;2022-08-19T04:28:58;24.70;52.60
3868;DHT22;1949;48.152;11.528;2022-08-19T04:31:28;24.70;52.70
3868;DHT22;1949;48.152;11.528;2022-08-19T04:33:55;24.70;52.60
3868;DHT22;1949;48.152;11.528;2022-08-19T04:36:33;24.70;52.50
3868;DHT22;1949;48.152;11.528;2022-08-19T04:39:06;24.70;52.60
3868;DHT22;1949;48.152;11.528;2022-08-19T04:41:34;24.70;52.60
3868;DHT22;1949;48.152;11.528;2022-08-19T04:44:20;24.70;52.50
3868;DHT22;1949;48.152;11.528;2022-08-19T04:46:49;24.60;52.30
3868;DHT22;1949;48.152;11.528;2022-08-19T04:49:20;24.50;52.50
3868;DHT22;1949;48.152;11.528;2022-08-19T04:51:53;24.50;52.70
3868;DHT22;1949;48.152;11.528;2022-08-19T04:54:24;24.50;52.70
3868;DHT22;1949;48.152;11.528;2022-08-19T04:56:52;24.50;52.80
3868;DHT22;1949;48.152;11.528;2022-08-19T04:59:19;24.50;52.80
3868;DHT22;1949;48.152;11.528;2022-08-19T05:01:47;24.50;52.80
3868;DHT22;1949;48.152;11.528;2022-08-19T05:04:19;24.50;52.70
3868;DHT22;1949;48.152;11.528;2022-08-19T05:06:50;24.50;52.70
3868;DHT22;1949;48.152;11.528;2022-08-19T05:09:18;24.40;52.70
3868;DHT22;1949;48.152;11.528;2022-08-19T05:11:49;24.40;52.70
3868;DHT22;1949;48.152;11.528;2022-08-19T05:14:18;24.40;52.80
3868;DHT22;1949;48.152;11.528;2022-08-19T05:16:45;24.30;52.90
3868;DHT22;1949;48.152;11.528;2022-08-19T05:19:10;24.30;52.80
3868;DHT22;1949;48.152;11.528;2022-08-19T05:21:56;24.20;52.90
3868;DHT22;1949;48.152;11.528;2022-08-19T05:24:41;24.20;53.10
3868;DHT22;1949;48.152;11.528;2022-08-19T05:27:07;24.20;53.20
3868;DHT22;1949;48.152;11.528;2022-08-19T05:29:33;24.20;53.10
3868;DHT22;1949;48.152;11.528;2022-08-19T05:32:03;24.20;53.80
3868;DHT22;1949;48.152;11.528;2022-08-19T05:34:30;24.20;53.20
3868;DHT22;1949;48.152;11.528;2022-08-19T05:36:59;24.20;53.20
3868;DHT22;1949;48.152;11.528;2022-08-19T05:39:30;24.20;53.20
3868;DHT22;1949;48.152;11.528;2022-08-19T05:41:59;24.30;53.30
3868;DHT22;1949;48.152;11.528;2022-08-19T05:44:31;24.30;53.10
3868;DHT22;1949;48.152;11.528;2022-08-19T05:47:04;24.30;53.10
3868;DHT22;1949;48.152;11.528;2022-08-19T05:49:33;24.30;53.20
3868;DHT22;1949;48.152;11.528;2022-08-19T05:52:06;24.30;53.20
3868;DHT22;1949;48.152;11.528;2022-08-19T05:54:34;24.30;53.30
3868;DHT22;1949;48.152;11.528;2022-08-19T05:57:02;24.40;53.30
3868;DHT22;1949;48.152;11.528;2022-08-19T05:59:28;24.40;53.10
3868;DHT22;1949;48.152;11.528;2022-08-19T06:01:55;24.50;53.10
3868;DHT22;1949;48.152;11.528;2022-08-19T06:04:23;24.60;53.10
3868;DHT22;1949;48.152;11.528;2022-08-19T06:06:52;24.60;53.10
3868;DHT22;1949;48.152;11.528;2022-08-19T06:09:20;24.60;52.90
3868;DHT22;1949;48.152;11.528;2022-08-19T06:11:52;24.70;52.90
3868;DHT22;1949;48.152;11.528;2022-08-19T06:14:22;24.70;52.80
3868;DHT22;1949;48.152;11.528;2022-08-19T06:16:50;24.70;52.80
3868;DHT22;1949;48.152;11.528;2022-08-19T06:19:22;24.80;52.90
3868;DHT22;1949;48.152;11.528;2022-08-19T06:21:52;24.80;52.70
3868;DHT22;1949;48.152;11.528;2022-08-19T06:24:21;24.80;52.70
3868;DHT22;1949;48.152;11.528;2022-08-19T06:26:52;24.80;52.70
3868;DHT22;1949;48.152;11.528;2022-08-19T06:29:20;24.80;52.80
3868;DHT22;1949;48.152;11.528;2022-08-19T06:31:49;24.80;52.80
3868;DHT22;1949;48.152;11.528;2022-08-19T06:34:16;24.80;52.90
3868;DHT22;1949;48.152;11.528;2022-08-19T06:36:48;24.80;52.80
3868;DHT22;1949;48.152;11.528;2022-08-19T06:39:17;24.80;52.80
3868;DHT22;1949;48.152;11.528;2022-08-19T06:41:46;24.80;52.80
3868;DHT22;1949;48.152;11.528;2022-08-19T06:44:14;24.80;52.80
3868;DHT22;1949;48.152;11.528;2022-08-19T06:46:41;24.80;53.00
3868;DHT22;1949;48.152;11.528;2022-08-19T06:49:07;24.70;52.90
3868;DHT22;1949;48.152;11.528;2022-08-19T06:51:37;24.80;53.00
3868;DHT22;1949;48.152;11.528;2022-08-19T06:54:04;24.80;53.00
3868;DHT22;1949;48.152;11.528;2022-08-19T06:56:34;24.80;53.00
3868;DHT22;1949;48.152;11.528;2022-08-19T06:59:10;24.90;53.00
3868;DHT22;1949;48.152;11.528;2022-08-19T07:01:48;24.90;53.00
3868;DHT22;1949;48.152;11.528;2022-08-19T07:04:24;24.90;52.80
3868;DHT22;1949;48.152;11.528;2022-08-19T07:06:59;24.80;53.00
3868;DHT22;1949;48.152;11.528;2022-08-19T07:09:26;24.70;52.90
3868;DHT22;1949;48.152;11.528;2022-08-19T07:11:54;24.70;53.20
3868;DHT22;1949;48.152;11.528;2022-08-19T07:14:26;24.70;53.20
3868;DHT22;1949;48.152;11.528;2022-08-19T07:16:53;24.80;53.40
3868;DHT22;1949;48.152;11.528;2022-08-19T07:19:24;24.80;53.30
3868;DHT22;1949;48.152;11.528;2022-08-19T07:21:53;24.80;53.30
3868;DHT22;1949;48.152;11.528;2022-08-19T07:24:24;24.90;53.30
3868;DHT22;1949;48.152;11.528;2022-08-19T07:26:51;24.90;53.30
3868;DHT22;1949;48.152;11.528;2022-08-19T07:29:18;24.90;53.20
3868;DHT22;1949;48.152;11.528;2022-08-19T07:31:44;25.00;53.20
3868;DHT22;1949;48.152;11.528;2022-08-19T07:34:12;25.00;53.20
3868;DHT22;1949;48.152;11.528;2022-08-19T07:36:40;25.00;53.30
3868;DHT22;1949;48.152;11.528;2022-08-19T07:39:14;25.10;53.40
3868;DHT22;1949;48.152;11.528;2022-08-19T07:41:41;25.10;53.30
3868;DHT22;1949;48.152;11.528;2022-08-19T07:44:08;25.10;53.20
3868;DHT22;1949;48.152;11.528;2022-08-19T07:46:39;25.10;53.10
3868;DHT22;1949;48.152;11.528;2022-08-19T07:49:07;25.20;53.10
3868;DHT22;1949;48.152;11.528;2022-08-19T07:51:34;25.20;53.20
3868;DHT22;1949;48.152;11.528;2022-08-19T07:54:00;25.10;53.00
3868;DHT22;1949;48.152;11.528;2022-08-19T07:56:27;25.20;53.20
3868;DHT22;1949;48.152;11.528;2022-08-19T07:58:52;25.20;53.20
3868;DHT22;1949;48.152;11.528;2022-08-19T08:01:22;25.10;53.10
3868;DHT22;1949;48.152;11.528;2022-08-19T08:03:52;25.20;53.10
3868;DHT22;1949;48.152;11.528;2022-08-19T08:06:37;25.10;53.00
3868;DHT22;1949;48.152;11.528;2022-08-19T08:09:27;25.10;53.10
3868;DHT22;1949;48.152;11.528;2022-08-19T08:12:01;25.10;53.20
3868;DHT22;1949;48.152;11.528;2022-08-19T08:14:50;25.10;53.10
3868;DHT22;1949;48.152;11.528;2022-08-19T08:17:20;25.10;53.10
3868;DHT22;1949;48.152;11.528;2022-08-19T08:19:48;25.10;53.10
3868;DHT22;1949;48.152;11.528;2022-08-19T08:22:18;25.00;53.00
3868;DHT22;1949;48.152;11.528;2022-08-19T08:25:13;25.00;53.10
3868;DHT22;1949;48.152;11.528;2022-08-19T08:27:41;24.90;53.20
3868;DHT22;1949;48.152;11.528;2022-08-19T08:30:14;24.90;53.20
3868;DHT22;1949;48.152;11.528;2022-08-19T08:32:42;24.90;53.30
3868;DHT22;1949;48.152;11.528;2022-08-19T08:35:12;24.90;53.40
3868;DHT22;1949;48.152;11.528;2022-08-19T08:37:38;25.00;53.50
3868;DHT22;1949;48.152;11.528;2022-08-19T08:40:16;25.00;53.40
3868;DHT22;1949;48.152;11.528;2022-08-19T08:42:53;25.00;53.40
3868;DHT22;1949;48.152;11.528;2022-08-19T08:45:20;25.00;53.30
3868;DHT22;1949;48.152;11.528;2022-08-19T08:47:49;24.90;53.20
3868;DHT22;1949;48.152;11.528;2022-08-19T08:50:24;24.90;53.20
3868;DHT22;1949;48.152;11.528;2022-08-19T08:52:56;24.90;53.40
3868;DHT22;1949;48.152;11.528;2022-08-19T08:55:28;24.90;53.60
3868;DHT22;1949;48.152;11.528;2022-08-19T09:00:41;24.80;53.50
3868;DHT22;1949;48.152;11.528;2022-08-19T09:03:18;24.90;53.70
3868;DHT22;1949;48.152;11.528;2022-08-19T09:14:24;24.90;53.60
3868;DHT22;1949;48.152;11.528;2022-08-19T09:16:53;24.90;53.60
3868;DHT22;1949;48.152;11.528;2022-08-19T09:19:20;24.90;53.70
3868;DHT22;1949;48.152;11.528;2022-08-19T09:21:47;24.80;53.50
3868;DHT22;1949;48.152;11.528;2022-08-19T09:24:13;24.80;53.80
3868;DHT22;1949;48.152;11.528;2022-08-19T09:26:39;24.80;53.80
3868;DHT22;1949;48.152;11.528;2022-08-19T09:29:06;24.70;53.80
3868;DHT22;1949;48.152;11.528;2022-08-19T09:31:32;24.70;53.80
3868;DHT22;1949;48.152;11.528;2022-08-19T09:34:00;24.60;53.90
3868;DHT22;1949;48.152;11.528;2022-08-19T09:36:35;24.60;54.30
3868;DHT22;1949;48.152;11.528;2022-08-19T09:39:05;24.70;54.40
3868;DHT22;1949;48.152;11.528;2022-08-19T09:41:31;24.80;54.50
3868;DHT22;1949;48.152;11.528;2022-08-19T09:43:58;24.80;54.30
3868;DHT22;1949;48.152;11.528;2022-08-19T09:46:26;24.90;54.30
3868;DHT22;1949;48.152;11.528;2022-08-19T09:48:54;24.90;54.10
3868;DHT22;1949;48.152;11.528;2022-08-19T09:51:24;24.90;53.90
3868;DHT22;1949;48.152;11.528;2022-08-19T09:53:52;24.80;54.10
3868;DHT22;1949;48.152;11.528;2022-08-19T09:56:29;24.90;54.30
3868;DHT22;1949;48.152;11.528;2022-08-19T09:59:02;24.90;54.20
3868;DHT22;1949;48.152;11.528;2022-08-19T10:01:30;24.90;54.20
3868;DHT22;1949;48.152;11.528;2022-08-19T10:04:02;24.80;54.10
3868;DHT22;1949;48.152;11.528;2022-08-19T10:06:40;24.80;54.20
3868;DHT22;1949;48.152;11.528;2022-08-19T10:09:08;24.70;54.10
3868;DHT22;1949;48.152;11.528;2022-08-19T10:11:48;24.60;54.30
3868;DHT22;1949;48.152;11.528;2022-08-19T10:14:15;24.60;54.40
3868;DHT22;1949;48.152;11.528;2022-08-19T10:16:43;24.60;54.50
3868;DHT22;1949;48.152;11.528;2022-08-19T10:19:09;24.60;54.60
3868;DHT22;1949;48.152;11.528;2022-08-19T10:21:35;24.60;54.60
3868;DHT22;1949;48.152;11.528;2022-08-19T10:24:04;24.50;54.70
3868;DHT22;1949;48.152;11.528;2022-08-19T10:26:34;24.50;55.00
3868;DHT22;1949;48.152;11.528;2022-08-19T10:29:06;24.60;55.30
3868;DHT22;1949;48.152;11.528;2022-08-19T10:31:33;24.60;55.00
3868;DHT22;1949;48.152;11.528;2022-08-19T10:34:01;24.60;55.10
3868;DHT22;1949;48.152;11.528;2022-08-19T10:36:31;24.60;55.20
3868;DHT22;1949;48.152;11.528;2022-08-19T10:39:04;24.70;55.40
3868;DHT22;1949;48.152;11.528;2022-08-19T10:41:33;24.70;55.40
3868;DHT22;1949;48.152;11.528;2022-08-19T10:44:04;24.80;55.50
3868;DHT22;1949;48.152;11.528;2022-08-19T10:46:38;24.80;55.30
3868;DHT22;1949;48.152;11.528;2022-08-19T10:49:08;24.90;55.20
3868;DHT22;1949;48.152;11.528;2022-08-19T10:51:34;24.90;55.30
3868;DHT22;1949;48.152;11.528;2022-08-19T10:54:20;25.00;55.30
3868;DHT22;1949;48.152;11.528;2022-08-19T10:56:46;25.00;54.70
3868;DHT22;1949;48.152;11.528;2022-08-19T10:59:28;25.00;54.70
3868;DHT22;1949;48.152;11.528;2022-08-19T11:01:59;24.90;55.20
3868;DHT22;1949;48.152;11.528;2022-08-19T11:04:33;24.80;55.00
3868;DHT22;1949;48.152;11.528;2022-08-19T11:06:58;24.80;55.20
3868;DHT22;1949;48.152;11.528;2022-08-19T11:09:26;24.80;55.00
3868;DHT22;1949;48.152;11.528;2022-08-19T11:11:55;24.90;55.10
3868;DHT22;1949;48.152;11.528;2022-08-19T11:14:23;24.90;55.00
3868;DHT22;1949;48.152;11.528;2022-08-19T11:16:52;24.90;55.10
3868;DHT22;1949;48.152;11.528;2022-08-19T11:19:21;24.90;55.20
3868;DHT22;1949;48.152;11.528;2022-08-19T11:21:52;25.00;55.20
3868;DHT22;1949;48.152;11.528;2022-08-19T11:24:24;25.00;55.00
3868;DHT22;1949;48.152;11.528;2022-08-19T11:26:52;25.00;54.90
3868;DHT22;1949;48.152;11.528;2022-08-19T11:29:22;25.00;54.90
3868;DHT22;1949;48.152;11.528;2022-08-19T11:31:53;25.00;54.70
3868;DHT22;1949;48.152;11.528;2022-08-19T11:34:22;25.00;54.70
3868;DHT22;1949;48.152;11.528;2022-08-19T11:36:50;25.00;54.60
3868;DHT22;1949;48.152;11.528;2022-08-19T11:39:18;25.10;54.60
3868;DHT22;1949;48.152;11.528;2022-08-19T11:41:45;25.10;54.50
3868;DHT22;1949;48.152;11.528;2022-08-19T11:44:19;25.10;54.40
3868;DHT22;1949;48.152;11.528;2022-08-19T11:46:48;25.20;54.60
3868;DHT22;1949;48.152;11.528;2022-08-19T11:49:19;25.20;54.50
3868;DHT22;1949;48.152;11.528;2022-08-19T11:51:44;25.20;54.60
3868;DHT22;1949;48.152;11.528;2022-08-19T11:54:13;25.30;54.30
3868;DHT22;1949;48.152;11.528;2022-08-19T11:56:40;25.20;54.10
3868;DHT22;1949;48.152;11.528;2022-08-19T11:59:07;25.30;54.10
3868;DHT22;1949;48.152;11.528;2022-08-19T12:01:36;25.20;54.10
3868;DHT22;1949;48.152;11.528;2022-08-19T12:04:03;25.20;54.10
3868;DHT22;1949;48.152;11.528;2022-08-19T12:06:32;25.20;54.00
3868;DHT22;1949;48.152;11.528;2022-08-19T12:09:07;25.20;54.00
3868;DHT22;1949;48.152;11.528;2022-08-19T12:11:40;25.20;54.10
3868;DHT22;1949;48.152;11.528;2022-08-19T12:14:11;25.10;54.20
3868;DHT22;1949;48.152;11.528;2022-08-19T12:16:40;25.10;54.10
3868;DHT22;1949;48.152;11.528;2022-08-19T12:19:07;25.10;54.20
3868;DHT22;1949;48.152;11.528;2022-08-19T12:21:35;25.10;54.20
3868;DHT22;1949;48.152;11.528;2022-08-19T12:24:05;25.10;54.20
3868;DHT22;1949;48.152;11.528;2022-08-19T12:26:34;25.10;54.30
3868;DHT22;1949;48.152;11.528;2022-08-19T12:29:01;25.10;54.10
3868;DHT22;1949;48.152;11.528;2022-08-19T12:31:28;25.10;54.20
3868;DHT22;1949;48.152;11.528;2022-08-19T12:33:54;25.10;54.20
3868;DHT22;1949;48.152;11.528;2022-08-19T12:36:20;25.20;54.10
3868;DHT22;1949;48.152;11.528;2022-08-19T12:38:47;25.20;54.00
3868;DHT22;1949;48.152;11.528;2022-08-19T12:41:15;25.10;54.00
3868;DHT22;1949;48.152;11.528;2022-08-19T12:43:51;25.20;54.00
3868;DHT22;1949;48.152;11.528;2022-08-19T12:46:19;25.20;54.00
3868;DHT22;1949;48.152;11.528;2022-08-19T12:48:48;25.30;54.00
3868;DHT22;1949;48.152;11.528;2022-08-19T12:51:17;25.20;53.60
3868;DHT22;1949;48.152;11.528;2022-08-19T12:53:45;25.30;53.70
3868;DHT22;1949;48.152;11.528;2022-08-19T12:56:17;25.30;53.70
3868;DHT22;1949;48.152;11.528;2022-08-19T12:58:44;25.30;53.70
3868;DHT22;1949;48.152;11.528;2022-08-19T13:01:14;25.40;53.60
3868;DHT22;1949;48.152;11.528;2022-08-19T13:03:44;25.40;53.50
3868;DHT22;1949;48.152;11.528;2022-08-19T13:06:14;25.40;53.40
3868;DHT22;1949;48.152;11.528;2022-08-19T13:08:47;25.50;53.40
3868;DHT22;1949;48.152;11.528;2022-08-19T13:11:20;25.50;53.40
3868;DHT22;1949;48.152;11.528;2022-08-19T13:13:54;25.60;53.60
3868;DHT22;1949;48.152;11.528;2022-08-19T13:16:21;25.70;53.30
3868;DHT22;1949;48.152;11.528;2022-08-19T13:18:50;25.70;53.00
3868;DHT22;1949;48.152;11.528;2022-08-19T13:21:21;25.80;53.00
3868;DHT22;1949;48.152;11.528;2022-08-19T13:23:49;25.90;52.90
3868;DHT22;1949;48.152;11.528;2022-08-19T13:26:18;26.10;52.90
3868;DHT22;1949;48.152;11.528;2022-08-19T13:28:46;26.10;52.40
3868;DHT22;1949;48.152;11.528;2022-08-19T13:31:33;26.10;52.10
3868;DHT22;1949;48.152;11.528;2022-08-19T13:34:19;26.10;52.10
3868;DHT22;1949;48.152;11.528;2022-08-19T13:36:54;26.00;52.30
3868;DHT22;1949;48.152;11.528;2022-08-19T13:39:20;26.00;52.30
3868;DHT22;1949;48.152;11.528;2022-08-19T13:41:49;26.00;52.30
3868;DHT22;1949;48.152;11.528;2022-08-19T13:44:16;25.90;52.30
3868;DHT22;1949;48.152;11.528;2022-08-19T13:46:44;26.00;52.60
3868;DHT22;1949;48.152;11.528;2022-08-19T13:49:17;26.00;52.70
3868;DHT22;1949;48.152;11.528;2022-08-19T13:51:46;26.10;52.50
3868;DHT22;1949;48.152;11.528;2022-08-19T13:54:12;26.00;52.20
3868;DHT22;1949;48.152;11.528;2022-08-19T13:56:45;25.90;52.20
3868;DHT22;1949;48.152;11.528;2022-08-19T13:59:17;25.80;52.30
3868;DHT22;1949;48.152;11.528;2022-08-19T14:01:46;25.80;52.40
3868;DHT22;1949;48.152;11.528;2022-08-19T14:04:11;25.70;52.40
3868;DHT22;1949;48.152;11.528;2022-08-19T14:06:37;25.60;52.60
3868;DHT22;1949;48.152;11.528;2022-08-19T14:09:04;25.60;52.70
3868;DHT22;1949;48.152;11.528;2022-08-19T14:11:30;25.70;52.90
3868;DHT22;1949;48.152;11.528;2022-08-19T14:13:56;25.80;52.90
3868;DHT22;1949;48.152;11.528;2022-08-19T14:16:21;26.00;52.80
3868;DHT22;1949;48.152;11.528;2022-08-19T14:18:47;26.10;52.80
3868;DHT22;1949;48.152;11.528;2022-08-19T14:21:20;26.30;52.50
3868;DHT22;1949;48.152;11.528;2022-08-19T14:23:46;26.30;52.00
3868;DHT22;1949;48.152;11.528;2022-08-19T14:26:15;26.30;51.90
3868;DHT22;1949;48.152;11.528;2022-08-19T14:28:43;26.30;51.90
3868;DHT22;1949;48.152;11.528;2022-08-19T14:31:14;26.30;51.90
3868;DHT22;1949;48.152;11.528;2022-08-19T14:33:48;26.20;51.80
3868;DHT22;1949;48.152;11.528;2022-08-19T14:36:14;26.20;51.90
3868;DHT22;1949;48.152;11.528;2022-08-19T14:38:40;26.20;51.90
3868;DHT22;1949;48.152;11.528;2022-08-19T14:41:20;26.10;51.80
3868;DHT22;1949;48.152;11.528;2022-08-19T14:43:50;26.10;51.90
3868;DHT22;1949;48.152;11.528;2022-08-19T14:46:18;26.10;51.80
3868;DHT22;1949;48.152;11.528;2022-08-19T14:48:47;26.00;51.90
3868;DHT22;1949;48.152;11.528;2022-08-19T14:51:14;25.90;51.90
3868;DHT22;1949;48.152;11.528;2022-08-19T14:53:42;25.90;52.10
3868;DHT22;1949;48.152;11.528;2022-08-19T14:56:17;25.80;52.00
3868;DHT22;1949;48.152;11.528;2022-08-19T14:58:47;25.80;52.20
3868;DHT22;1949;48.152;11.528;2022-08-19T15:01:16;25.80;52.20
3868;DHT22;1949;48.152;11.528;2022-08-19T15:03:44;25.70;52.10
3868;DHT22;1949;48.152;11.528;2022-08-19T15:06:10;25.70;52.10
3868;DHT22;1949;48.152;11.528;2022-08-19T15:08:37;25.70;52.00
3868;DHT22;1949;48.152;11.528;2022-08-19T15:11:10;25.70;52.20
3868;DHT22;1949;48.152;11.528;2022-08-19T15:13:37;25.70;52.20
3868;DHT22;1949;48.152;11.528;2022-08-19T15:16:03;25.70;52.20
3868;DHT22;1949;48.152;11.528;2022-08-19T15:18:29;25.70;52.20
3868;DHT22;1949;48.152;11.528;2022-08-19T15:20:57;25.70;52.10
3868;DHT22;1949;48.152;11.528;2022-08-19T15:23:25;25.70;52.00
3868;DHT22;1949;48.152;11.528;2022-08-19T15:25:50;25.60;52.00
3868;DHT22;1949;48.152;11.528;2022-08-19T15:28:24;25.60;52.20
3868;DHT22;1949;48.152;11.528;2022-08-19T15:30:52;25.50;52.30
3868;DHT22;1949;48.152;11.528;2022-08-19T15:33:19;25.50;52.80
3868;DHT22;1949;48.152;11.528;2022-08-19T15:35:47;25.40;52.80
3868;DHT22;1949;48.152;11.528;2022-08-19T15:38:17;25.40;53.20
3868;DHT22;1949;48.152;11.528;2022-08-19T15:40:48;25.30;53.20
3868;DHT22;1949;48.152;11.528;2022-08-19T15:43:16;25.30;53.40
3868;DHT22;1949;48.152;11.528;2022-08-19T15:45:48;25.30;53.50
3868;DHT22;1949;48.152;11.528;2022-08-19T15:48:14;25.30;53.70
3868;DHT22;1949;48.152;11.528;2022-08-19T15:50:40;25.30;53.70
3868;DHT22;1949;48.152;11.528;2022-08-19T15:53:09;25.30;53.80
3868;DHT22;1949;48.152;11.528;2022-08-19T15:55:41;25.30;53.90
3868;DHT22;1949;48.152;11.528;2022-08-19T15:58:13;25.30;53.90
3868;DHT22;1949;48.152;11.528;2022-08-19T16:00:59;25.30;53.90
3868;DHT22;1949;48.152;11.528;2022-08-19T16:03:45;25.30;53.80
3868;DHT22;1949;48.152;11.528;2022-08-19T16:06:32;25.20;54.00
3868;DHT22;1949;48.152;11.528;2022-08-19T16:09:00;25.30;53.90
3868;DHT22;1949;48.152;11.528;2022-08-19T16:11:32;25.30;54.00
3868;DHT22;1949;48.152;11.528;2022-08-19T16:13:59;25.40;53.90
3868;DHT22;1949;48.152;11.528;2022-08-19T16:16:33;25.40;54.00